Time;durP1;ratioP1;P1;durP2;ratioP2;P2;SDS_P1;SDS_P2;PMS_P1;PMS_P2;Temp;Humidity;BMP_temperature;BMP_pressure;BME280_temperature;BME280_humidity;BME280_pressure;Samples;Min_cycle;Max_cycle;Signal;HPM_P1;HPM_P2
2023/02/17 00:00:22;;;;;;;28.53;23.30;;;8.80;99.90;;;;;;5034158;28;20744;-66
2023/02/17 00:02:49;;;;;;;25.83;21.27;;;8.80;99.90;;;;;;5033347;28;20495;-65
2023/02/17 00:05:17;;;;;;;25.27;20.50;;;8.90;99.90;;;;;;5035246;28;20754;-66
2023/02/17 00:07:44;;;;;;;26.37;21.17;;;8.90;99.90;;;;;;5032919;28;20888;-66
2023/02/17 00:10:12;;;;;;;28.63;21.43;;;8.90;99.90;;;;;;5035020;28;20455;-65
2023/02/17 00:12:39;;;;;;;29.77;21.47;;;8.90;99.90;;;;;;5034370;28;20455;-66
2023/02/17 00:15:07;;;;;;;24.87;20.50;;;8.90;99.90;;;;;;5034529;28;20781;-66
2023/02/17 00:17:34;;;;;;;31.30;22.57;;;9.00;99.90;;;;;;5034516;28;20460;-66
2023/02/17 00:20:01;;;;;;;27.20;20.40;;;9.00;99.90;;;;;;5034998;28;20455;-66
2023/02/17 00:22:30;;;;;;;28.20;20.80;;;9.00;99.90;;;;;;5034073;28;20465;-66
2023/02/17 00:24:57;;;;;;;25.67;22.30;;;9.10;99.90;;;;;;5034485;28;20574;-66
2023/02/17 00:27:24;;;;;;;24.97;20.63;;;9.10;99.90;;;;;;5034602;28;20761;-66
2023/02/17 00:29:51;;;;;;;26.80;20.50;;;9.10;99.90;;;;;;5034188;28;20459;-66
2023/02/17 00:32:18;;;;;;;25.93;21.07;;;9.20;99.90;;;;;;5034217;28;20459;-66
2023/02/17 00:34:45;;;;;;;26.13;20.27;;;9.20;99.90;;;;;;5033715;28;20454;-66
2023/02/17 00:37:12;;;;;;;23.00;18.83;;;9.10;99.90;;;;;;5034167;28;20455;-66
2023/02/17 00:39:41;;;;;;;25.57;19.63;;;9.20;99.90;;;;;;5033835;27;20461;-66
2023/02/17 00:42:08;;;;;;;25.60;20.90;;;9.20;99.90;;;;;;5034373;28;20460;-66
2023/02/17 00:44:35;;;;;;;22.90;18.90;;;9.20;99.90;;;;;;5031417;28;20502;-65
2023/02/17 00:47:02;;;;;;;28.30;20.43;;;9.30;99.90;;;;;;5030533;28;20434;-65
2023/02/17 00:49:29;;;;;;;26.50;19.70;;;9.30;99.90;;;;;;5032039;28;20907;-66
2023/02/17 00:51:59;;;;;;;23.20;18.87;;;9.30;99.90;;;;;;5033722;28;20761;-66
2023/02/17 00:54:26;;;;;;;25.70;19.87;;;9.30;99.90;;;;;;5031557;28;20535;-66
2023/02/17 00:56:55;;;;;;;27.17;18.67;;;9.40;99.90;;;;;;5033922;28;20460;-66
2023/02/17 00:59:22;;;;;;;22.10;19.00;;;9.40;99.90;;;;;;5031205;28;20465;-66
2023/02/17 01:01:51;;;;;;;19.97;17.33;;;9.40;99.90;;;;;;5033501;28;20466;-66
2023/02/17 01:04:18;;;;;;;22.27;17.63;;;9.40;99.90;;;;;;5033708;28;20517;-65
2023/02/17 01:06:51;;;;;;;26.37;19.37;;;9.40;99.90;;;;;;5032966;28;20554;-65
2023/02/17 01:09:18;;;;;;;26.60;17.57;;;9.40;99.90;;;;;;5033376;28;20470;-65
2023/02/17 01:11:45;;;;;;;23.27;18.23;;;9.40;99.90;;;;;;5031965;28;20463;-65
2023/02/17 01:14:16;;;;;;;20.30;17.67;;;9.40;99.90;;;;;;5032325;28;20469;-65
2023/02/17 01:16:46;;;;;;;23.13;17.77;;;9.40;99.90;;;;;;5030111;28;20467;-65
2023/02/17 01:19:16;;;;;;;19.70;17.60;;;9.40;99.90;;;;;;5033658;28;20717;-65
2023/02/17 01:21:43;;;;;;;20.47;17.77;;;9.50;99.90;;;;;;5032224;28;20468;-66
2023/02/17 01:24:12;;;;;;;24.70;19.60;;;9.50;99.90;;;;;;5033112;28;20785;-66
2023/02/17 01:26:40;;;;;;;21.70;16.90;;;9.50;99.90;;;;;;5030583;28;20900;-66
2023/02/17 01:29:08;;;;;;;22.00;18.70;;;9.50;99.90;;;;;;5032483;28;20884;-65
2023/02/17 01:31:37;;;;;;;29.13;20.27;;;9.50;99.90;;;;;;5032103;28;20466;-65
2023/02/17 01:34:04;;;;;;;22.70;18.30;;;9.50;99.90;;;;;;5032424;28;20463;-65
2023/02/17 01:36:33;;;;;;;22.73;20.00;;;9.50;99.90;;;;;;5032929;28;20769;-65
2023/02/17 01:39:02;;;;;;;21.40;17.47;;;9.50;99.90;;;;;;5032684;28;20441;-66
2023/02/17 01:41:30;;;;;;;22.60;18.00;;;9.50;99.90;;;;;;5031797;27;20524;-65
2023/02/17 01:44:10;;;;;;;23.10;19.37;;;9.50;99.90;;;;;;5032367;28;20966;-65
2023/02/17 01:46:40;;;;;;;21.80;18.33;;;9.50;99.90;;;;;;5032048;28;20477;-65
2023/02/17 01:49:27;;;;;;;23.20;18.30;;;9.50;99.90;;;;;;5032080;28;20459;-65
2023/02/17 01:52:00;;;;;;;20.70;18.60;;;9.50;99.90;;;;;;5031793;28;20514;-65
2023/02/17 01:54:34;;;;;;;21.50;19.20;;;9.50;99.90;;;;;;5031785;28;20506;-65
2023/02/17 01:57:02;;;;;;;22.23;19.67;;;9.50;99.90;;;;;;5032501;28;20434;-65
2023/02/17 01:59:31;;;;;;;21.20;19.00;;;9.50;99.90;;;;;;5032023;28;20554;-63
2023/02/17 02:02:05;;;;;;;23.13;19.90;;;9.50;99.90;;;;;;5031831;28;20555;-65
2023/02/17 02:04:36;;;;;;;21.90;19.67;;;9.60;99.90;;;;;;5030441;28;20446;-64
2023/02/17 02:07:06;;;;;;;21.67;19.37;;;9.60;99.90;;;;;;5033886;28;20566;-65
2023/02/17 02:09:38;;;;;;;22.97;19.30;;;9.50;99.90;;;;;;5033753;28;20915;-66
2023/02/17 02:12:17;;;;;;;24.30;19.70;;;9.60;99.90;;;;;;5033884;28;20467;-65
2023/02/17 02:14:44;;;;;;;22.90;19.60;;;9.60;99.90;;;;;;5033449;28;20464;-65
2023/02/17 02:17:17;;;;;;;22.40;20.00;;;9.60;99.90;;;;;;5033644;28;20802;-66
2023/02/17 02:20:07;;;;;;;20.90;18.60;;;9.60;99.90;;;;;;5033472;28;20557;-65
2023/02/17 02:22:54;;;;;;;21.70;18.90;;;9.60;99.90;;;;;;5033233;28;20471;-65
2023/02/17 02:25:47;;;;;;;21.80;18.77;;;9.60;99.90;;;;;;5036230;28;20502;-66
2023/02/17 02:28:26;;;;;;;21.80;19.50;;;9.60;99.90;;;;;;5037085;28;20444;-66
2023/02/17 02:31:06;;;;;;;21.03;18.93;;;9.60;99.90;;;;;;5037150;28;20467;-66
2023/02/17 02:33:40;;;;;;;21.20;18.00;;;9.60;99.90;;;;;;5036343;28;20891;-67
2023/02/17 02:36:12;;;;;;;20.97;18.63;;;9.60;99.90;;;;;;5036613;28;20455;-67
2023/02/17 02:38:42;;;;;;;20.87;18.30;;;9.70;99.90;;;;;;5037064;28;20467;-66
2023/02/17 02:41:14;;;;;;;20.40;16.87;;;9.70;99.90;;;;;;5036647;28;20459;-66
2023/02/17 02:43:42;;;;;;;19.77;17.67;;;9.60;99.90;;;;;;5036534;28;20514;-66
2023/02/17 02:46:10;;;;;;;19.20;16.30;;;9.60;99.90;;;;;;5036297;28;20466;-66
2023/02/17 02:48:39;;;;;;;17.47;15.77;;;9.60;99.90;;;;;;5036535;28;20493;-66
2023/02/17 02:51:26;;;;;;;21.00;16.30;;;9.70;99.90;;;;;;5036705;28;20442;-65
2023/02/17 02:54:11;;;;;;;17.40;15.50;;;9.70;99.90;;;;;;5032319;28;20494;-65
2023/02/17 02:56:59;;;;;;;20.17;15.80;;;9.70;99.90;;;;;;5022596;28;20473;-65
2023/02/17 02:59:36;;;;;;;18.37;15.60;;;9.80;99.90;;;;;;5036474;28;20758;-64
2023/02/17 03:02:10;;;;;;;17.80;15.47;;;9.80;99.90;;;;;;5036764;28;20463;-65
2023/02/17 03:04:46;;;;;;;17.67;15.63;;;9.80;99.90;;;;;;5035872;28;20487;-64
2023/02/17 03:07:20;;;;;;;18.23;16.33;;;9.80;99.90;;;;;;5036606;28;20463;-64
2023/02/17 03:09:48;;;;;;;18.40;16.20;;;9.80;99.90;;;;;;5036495;28;20471;-64
2023/02/17 03:12:15;;;;;;;17.70;15.63;;;9.80;99.90;;;;;;5036510;28;20463;-64
2023/02/17 03:14:43;;;;;;;16.30;14.60;;;9.90;99.90;;;;;;5035904;28;20925;-64
2023/02/17 03:17:10;;;;;;;17.03;14.57;;;9.80;99.90;;;;;;5035512;28;20466;-63
2023/02/17 03:19:39;;;;;;;16.20;14.50;;;9.90;99.90;;;;;;5036457;28;20474;-63
2023/02/17 03:22:13;;;;;;;15.50;13.30;;;9.80;99.90;;;;;;5036199;28;20438;-64
2023/02/17 03:24:40;;;;;;;19.40;14.90;;;9.80;99.90;;;;;;5035273;28;20468;-64
2023/02/17 03:27:07;;;;;;;16.10;14.47;;;9.80;99.90;;;;;;5035413;28;20772;-64
2023/02/17 03:29:34;;;;;;;15.00;13.47;;;9.90;99.90;;;;;;5035777;28;20437;-63
2023/02/17 03:32:02;;;;;;;15.43;13.90;;;9.90;99.90;;;;;;5036524;28;20486;-64
2023/02/17 03:34:29;;;;;;;17.50;14.37;;;9.90;99.90;;;;;;5036209;28;20864;-64
2023/02/17 03:36:57;;;;;;;17.90;14.53;;;9.90;99.90;;;;;;5034732;28;20464;-64
2023/02/17 03:39:25;;;;;;;14.73;13.23;;;9.90;99.90;;;;;;5035953;28;20463;-64
2023/02/17 03:41:52;;;;;;;16.77;14.23;;;9.90;99.90;;;;;;5036047;28;20463;-64
2023/02/17 03:44:20;;;;;;;16.93;14.73;;;9.90;99.90;;;;;;5036072;28;20535;-64
2023/02/17 03:46:47;;;;;;;15.23;13.73;;;9.90;99.90;;;;;;5035251;28;20467;-64
2023/02/17 03:49:14;;;;;;;16.10;14.40;;;9.90;99.90;;;;;;5035326;28;20466;-65
2023/02/17 03:51:41;;;;;;;16.30;13.33;;;9.90;99.90;;;;;;5034829;28;20474;-64
2023/02/17 03:54:10;;;;;;;17.53;13.40;;;9.90;99.90;;;;;;5035188;28;20490;-64
2023/02/17 03:56:37;;;;;;;23.13;15.10;;;9.90;99.90;;;;;;5034470;28;20463;-64
2023/02/17 03:59:05;;;;;;;17.17;15.07;;;9.90;99.90;;;;;;5034459;28;20792;-64
2023/02/17 04:01:32;;;;;;;16.67;14.73;;;9.90;99.90;;;;;;5034629;28;20763;-64
2023/02/17 04:03:59;;;;;;;15.50;13.47;;;9.90;99.90;;;;;;5035037;28;20469;-64
2023/02/17 04:06:26;;;;;;;14.33;12.83;;;9.90;99.90;;;;;;5035262;28;20880;-64
2023/02/17 04:08:53;;;;;;;14.50;13.00;;;9.90;99.90;;;;;;5034645;28;20463;-64
2023/02/17 04:11:22;;;;;;;16.83;15.13;;;9.90;99.90;;;;;;5035477;28;20463;-64
2023/02/17 04:13:49;;;;;;;15.77;14.17;;;9.90;99.90;;;;;;5035039;28;20470;-63
2023/02/17 04:16:16;;;;;;;15.97;13.37;;;9.90;99.90;;;;;;5035568;28;20755;-64
2023/02/17 04:18:43;;;;;;;16.63;14.93;;;9.90;99.90;;;;;;5034471;28;20470;-64
2023/02/17 04:21:11;;;;;;;14.03;12.60;;;9.90;99.90;;;;;;5033753;28;20792;-64
2023/02/17 04:23:38;;;;;;;17.63;14.50;;;9.90;99.90;;;;;;5033799;28;20467;-64
2023/02/17 04:26:07;;;;;;;15.57;13.90;;;9.90;99.90;;;;;;5034632;28;20913;-64
2023/02/17 04:28:38;;;;;;;17.30;14.57;;;9.90;99.90;;;;;;5034068;28;20467;-63
2023/02/17 04:31:05;;;;;;;15.37;13.67;;;9.90;99.90;;;;;;5034754;28;20468;-64
2023/02/17 04:33:32;;;;;;;17.23;15.43;;;9.90;99.90;;;;;;5034920;28;20904;-64
2023/02/17 04:36:02;;;;;;;16.10;14.40;;;9.90;99.90;;;;;;5035399;28;20474;-64
2023/02/17 04:38:30;;;;;;;16.63;14.77;;;10.00;99.90;;;;;;5034438;28;20745;-64
2023/02/17 04:40:58;;;;;;;15.57;13.50;;;10.00;99.90;;;;;;5034909;28;20474;-64
2023/02/17 04:43:28;;;;;;;13.53;12.13;;;10.00;99.90;;;;;;5034574;28;20463;-63
2023/02/17 04:45:57;;;;;;;15.40;13.80;;;10.00;99.90;;;;;;5035078;28;20491;-64
2023/02/17 04:48:24;;;;;;;13.87;12.37;;;10.00;99.90;;;;;;5033935;28;20463;-64
2023/02/17 04:50:52;;;;;;;16.03;14.20;;;10.00;99.90;;;;;;5034365;28;20467;-63
2023/02/17 04:53:20;;;;;;;17.37;14.53;;;10.00;99.90;;;;;;5034587;28;20490;-64
2023/02/17 04:55:48;;;;;;;18.43;13.50;;;10.00;99.90;;;;;;5034496;28;20448;-64
2023/02/17 04:58:15;;;;;;;16.13;13.40;;;10.00;99.90;;;;;;5035286;28;20474;-64
2023/02/17 05:00:42;;;;;;;14.37;12.97;;;10.00;99.90;;;;;;5040814;27;20777;-64
2023/02/17 05:03:11;;;;;;;16.93;15.23;;;10.00;99.90;;;;;;5046082;27;20467;-64
2023/02/17 05:05:38;;;;;;;16.57;14.80;;;10.00;99.90;;;;;;5059263;27;20498;-66
2023/02/17 05:08:05;;;;;;;14.83;13.33;;;10.00;99.90;;;;;;5065683;27;20471;-65
2023/02/17 05:10:33;;;;;;;14.50;12.53;;;10.00;99.90;;;;;;5032961;28;20472;-65
2023/02/17 05:13:00;;;;;;;14.83;13.23;;;10.00;99.90;;;;;;5033763;28;20473;-65
2023/02/17 05:15:27;;;;;;;14.03;12.63;;;10.00;99.90;;;;;;5031770;28;20456;-65
2023/02/17 05:17:54;;;;;;;15.43;13.20;;;10.10;99.90;;;;;;5036935;28;20883;-65
2023/02/17 05:20:23;;;;;;;14.90;13.10;;;10.00;99.90;;;;;;5034755;28;20459;-66
2023/02/17 05:22:50;;;;;;;14.00;12.60;;;10.10;99.90;;;;;;5030405;28;20777;-66
2023/02/17 05:25:17;;;;;;;16.30;13.67;;;10.10;99.90;;;;;;5034655;28;20501;-66
2023/02/17 05:27:44;;;;;;;14.67;13.17;;;10.10;99.90;;;;;;5033544;28;20468;-67
2023/02/17 05:30:12;;;;;;;16.07;13.30;;;10.10;99.90;;;;;;5033594;28;20868;-67
2023/02/17 05:32:41;;;;;;;15.00;11.93;;;10.10;99.90;;;;;;5033171;28;20477;-70
2023/02/17 05:35:09;;;;;;;14.63;12.00;;;10.00;99.90;;;;;;5042865;28;20895;-69
2023/02/17 05:37:37;;;;;;;14.53;12.90;;;10.10;99.90;;;;;;5034391;28;20474;-68
2023/02/17 05:40:06;;;;;;;12.83;11.43;;;10.00;99.90;;;;;;5034799;28;20468;-68
2023/02/17 05:42:33;;;;;;;14.10;12.00;;;10.10;99.90;;;;;;5034097;28;20918;-66
2023/02/17 05:45:00;;;;;;;13.20;11.90;;;10.10;99.90;;;;;;5033301;28;20491;-69
2023/02/17 05:47:27;;;;;;;13.53;12.13;;;10.10;99.90;;;;;;5107840;28;20822;-69
2023/02/17 05:49:54;;;;;;;13.20;11.80;;;10.00;99.90;;;;;;5050015;28;20463;-69
2023/02/17 05:52:21;;;;;;;13.20;11.80;;;10.10;99.90;;;;;;5030915;28;20471;-69
2023/02/17 05:54:50;;;;;;;13.73;12.33;;;10.10;99.90;;;;;;5033029;28;20503;-68
2023/02/17 05:57:17;;;;;;;14.13;12.63;;;10.10;99.90;;;;;;5034109;28;20863;-68
2023/02/17 05:59:44;;;;;;;13.83;12.53;;;10.10;99.90;;;;;;5033895;28;20482;-67
2023/02/17 06:02:11;;;;;;;14.20;12.60;;;10.10;99.90;;;;;;5035927;28;20886;-67
2023/02/17 06:04:38;;;;;;;15.17;12.83;;;10.10;99.90;;;;;;5035238;28;20467;-68
2023/02/17 06:07:06;;;;;;;14.87;13.30;;;10.10;99.90;;;;;;5034315;28;20468;-68
2023/02/17 06:09:33;;;;;;;15.50;13.57;;;10.10;99.90;;;;;;5052691;27;20570;-67
2023/02/17 06:12:01;;;;;;;14.90;12.83;;;10.10;99.90;;;;;;5042336;27;20792;-67
2023/02/17 06:14:29;;;;;;;14.33;12.87;;;10.10;99.90;;;;;;5044074;27;20471;-67
2023/02/17 06:16:56;;;;;;;13.83;12.50;;;10.10;99.90;;;;;;5033801;28;20478;-66
2023/02/17 06:19:23;;;;;;;15.40;12.77;;;10.10;99.90;;;;;;5034508;28;20459;-67
2023/02/17 06:21:50;;;;;;;15.60;14.00;;;10.10;99.90;;;;;;5034524;28;20459;-66
2023/02/17 06:24:18;;;;;;;14.77;13.17;;;10.10;99.90;;;;;;5034078;28;20465;-67
2023/02/17 06:26:45;;;;;;;14.60;12.60;;;10.10;99.90;;;;;;5033744;28;20499;-66
2023/02/17 06:29:13;;;;;;;15.10;12.60;;;10.10;99.90;;;;;;5026058;28;20482;-67
2023/02/17 06:31:41;;;;;;;15.00;13.43;;;10.10;99.90;;;;;;5028443;28;20477;-66
2023/02/17 06:34:08;;;;;;;15.13;13.00;;;10.10;99.90;;;;;;5015786;28;20478;-66
2023/02/17 06:36:35;;;;;;;16.83;12.73;;;10.10;99.90;;;;;;5021250;28;20467;-67
2023/02/17 06:39:03;;;;;;;14.23;12.73;;;10.10;99.90;;;;;;5015457;28;20939;-67
2023/02/17 06:41:30;;;;;;;14.50;13.10;;;10.10;99.90;;;;;;5031798;27;20462;-65
2023/02/17 06:43:58;;;;;;;14.53;13.03;;;10.10;99.90;;;;;;5033789;28;20478;-69
2023/02/17 06:46:26;;;;;;;16.00;14.30;;;10.10;99.90;;;;;;5030023;28;20495;-67
2023/02/17 06:48:54;;;;;;;16.33;13.47;;;10.10;99.90;;;;;;5025345;28;20475;-67
2023/02/17 06:51:21;;;;;;;14.60;13.20;;;10.10;99.90;;;;;;5034677;28;20528;-67
2023/02/17 06:53:48;;;;;;;14.30;12.90;;;10.10;99.90;;;;;;5035145;28;20483;-67
2023/02/17 06:56:15;;;;;;;16.20;14.67;;;10.10;99.90;;;;;;5036285;28;20459;-65
2023/02/17 06:58:42;;;;;;;15.53;13.93;;;10.10;99.90;;;;;;5037071;28;20465;-66
2023/02/17 07:01:16;;;;;;;15.57;13.90;;;10.20;99.90;;;;;;5036334;28;20562;-66
2023/02/17 07:03:45;;;;;;;16.53;14.67;;;10.20;99.90;;;;;;5036113;28;20471;-65
2023/02/17 07:06:12;;;;;;;16.93;15.23;;;10.20;99.90;;;;;;5036406;28;20791;-66
2023/02/17 07:08:39;;;;;;;21.63;15.90;;;10.20;99.90;;;;;;5036491;28;20488;-67
2023/02/17 07:11:07;;;;;;;16.47;14.63;;;10.20;99.90;;;;;;5035683;28;20574;-67
2023/02/17 07:13:34;;;;;;;17.03;15.20;;;10.10;99.90;;;;;;5035383;28;20565;-68
2023/02/17 07:16:01;;;;;;;21.33;17.83;;;10.10;99.90;;;;;;5036252;28;20824;-70
2023/02/17 07:18:29;;;;;;;18.73;15.27;;;10.10;99.90;;;;;;5036662;28;20467;-69
2023/02/17 07:20:57;;;;;;;15.53;13.77;;;10.10;99.90;;;;;;5036064;28;20463;-66
2023/02/17 07:23:24;;;;;;;21.80;19.03;;;10.00;99.90;;;;;;5056786;27;20466;-64
2023/02/17 07:25:52;;;;;;;16.70;14.93;;;10.00;99.90;;;;;;5036728;28;20497;-62
2023/02/17 07:28:19;;;;;;;24.80;20.57;;;10.00;99.90;;;;;;5035236;28;20489;-63
2023/02/17 07:30:46;;;;;;;16.53;14.77;;;9.90;99.90;;;;;;5035948;28;20471;-64
2023/02/17 07:33:13;;;;;;;17.20;15.40;;;9.90;99.90;;;;;;5035521;28;20892;-63
2023/02/17 07:35:42;;;;;;;18.87;16.00;;;10.00;99.90;;;;;;5035893;28;20464;-63
2023/02/17 07:38:11;;;;;;;15.30;13.70;;;10.00;99.90;;;;;;5036096;28;20970;-64
2023/02/17 07:40:38;;;;;;;16.03;13.90;;;10.00;99.90;;;;;;5036097;28;20516;-63
2023/02/17 07:43:06;;;;;;;15.63;13.90;;;10.00;99.90;;;;;;5035233;28;20464;-63
2023/02/17 07:45:33;;;;;;;15.50;13.57;;;10.00;99.90;;;;;;5016296;28;20583;-64
2023/02/17 07:48:00;;;;;;;16.43;14.83;;;10.10;99.90;;;;;;5020716;28;20937;-65
2023/02/17 07:50:28;;;;;;;16.63;14.93;;;10.10;99.90;;;;;;5035490;28;20463;-65
2023/02/17 07:52:55;;;;;;;20.00;16.60;;;10.10;99.90;;;;;;5035427;28;20467;-64
2023/02/17 07:55:24;;;;;;;15.63;14.07;;;10.10;99.90;;;;;;5033935;28;20534;-65
2023/02/17 07:57:51;;;;;;;17.10;14.80;;;10.10;99.90;;;;;;5036280;28;20463;-64
2023/02/17 08:00:19;;;;;;;16.20;14.27;;;10.10;99.90;;;;;;5015280;28;20475;-65
2023/02/17 08:02:46;;;;;;;15.50;13.63;;;10.20;99.90;;;;;;5015427;28;20491;-65
2023/02/17 08:05:13;;;;;;;15.80;14.10;;;10.20;99.90;;;;;;5022263;28;20898;-65
2023/02/17 08:07:40;;;;;;;19.33;17.03;;;10.20;99.90;;;;;;5034878;28;20465;-65
2023/02/17 08:15:41;;;;;;;16.50;14.80;;;10.30;99.90;;;;;;5032313;28;20447;-64
2023/02/17 08:18:08;;;;;;;16.03;14.27;;;10.30;99.90;;;;;;5035521;28;20459;-62
2023/02/17 08:20:35;;;;;;;15.50;13.73;;;10.30;99.90;;;;;;5033341;28;20510;-65
2023/02/17 08:23:03;;;;;;;15.73;13.40;;;10.40;99.90;;;;;;5033663;28;20752;-64
2023/02/17 08:25:32;;;;;;;16.93;13.40;;;10.40;99.90;;;;;;5033102;28;20491;-64
2023/02/17 08:28:01;;;;;;;15.77;14.10;;;10.40;99.90;;;;;;5033588;28;20474;-63
2023/02/17 08:30:28;;;;;;;16.40;14.70;;;10.50;99.90;;;;;;5033773;28;20767;-63
2023/02/17 08:32:55;;;;;;;15.00;12.87;;;10.50;99.90;;;;;;5033410;28;20474;-63
2023/02/17 08:35:22;;;;;;;14.83;13.30;;;10.50;99.90;;;;;;5034480;28;20464;-63
2023/02/17 08:37:50;;;;;;;15.43;13.83;;;10.50;99.90;;;;;;5034018;28;20620;-63
2023/02/17 08:40:18;;;;;;;15.90;14.20;;;10.50;99.90;;;;;;5034427;28;20774;-63
2023/02/17 08:42:45;;;;;;;18.40;15.83;;;10.60;99.90;;;;;;5030529;28;20461;-63
2023/02/17 08:45:15;;;;;;;18.10;15.20;;;10.60;99.90;;;;;;5014331;28;20543;-63
2023/02/17 08:47:42;;;;;;;14.23;12.73;;;10.60;99.90;;;;;;5015350;28;20462;-63
2023/02/17 08:50:12;;;;;;;14.47;12.93;;;10.60;99.90;;;;;;5024347;28;20468;-64
2023/02/17 08:52:39;;;;;;;12.87;11.57;;;10.60;99.90;;;;;;5016384;28;20558;-63
2023/02/17 08:55:07;;;;;;;15.00;12.67;;;10.60;99.90;;;;;;5034681;28;20475;-63
2023/02/17 08:57:34;;;;;;;15.30;13.03;;;10.70;99.90;;;;;;5027723;28;20463;-64
2023/02/17 09:00:01;;;;;;;12.67;9.90;;;10.70;99.90;;;;;;5028946;28;20788;-64
2023/02/17 09:02:30;;;;;;;11.57;10.37;;;10.80;99.90;;;;;;5032336;28;20490;-63
2023/02/17 09:04:57;;;;;;;10.70;9.20;;;10.80;99.90;;;;;;5037199;27;20475;-63
2023/02/17 09:07:24;;;;;;;11.10;10.00;;;10.80;99.90;;;;;;5034232;28;20494;-63
2023/02/17 09:09:51;;;;;;;14.73;10.47;;;10.90;99.90;;;;;;5034077;28;20471;-64
2023/02/17 09:12:18;;;;;;;11.90;9.80;;;10.90;99.90;;;;;;5034550;28;20546;-64
2023/02/17 09:14:45;;;;;;;10.20;9.00;;;11.00;99.90;;;;;;5029426;28;20465;-64
2023/02/17 09:17:13;;;;;;;14.33;9.33;;;11.00;99.90;;;;;;5018941;28;20550;-63
2023/02/17 09:19:41;;;;;;;11.40;9.97;;;11.10;99.90;;;;;;5031488;28;20475;-63
2023/02/17 09:22:08;;;;;;;10.03;9.03;;;11.20;99.90;;;;;;5032678;28;20475;-65
2023/02/17 09:24:37;;;;;;;11.23;9.20;;;11.20;99.90;;;;;;5031656;28;20473;-65
2023/02/17 09:27:04;;;;;;;11.10;10.00;;;11.30;99.90;;;;;;5030718;28;20495;-65
2023/02/17 09:29:31;;;;;;;9.73;8.30;;;11.30;99.90;;;;;;5033109;28;20568;-67
2023/02/17 09:31:58;;;;;;;11.37;9.60;;;11.40;99.90;;;;;;5029477;28;20483;-67
2023/02/17 09:34:26;;;;;;;10.73;9.53;;;11.30;99.90;;;;;;5022240;28;20800;-66
2023/02/17 09:36:54;;;;;;;9.53;8.40;;;11.40;99.90;;;;;;5027871;28;20469;-66
2023/02/17 09:39:22;;;;;;;9.90;8.87;;;11.40;99.90;;;;;;5033250;28;20471;-67
2023/02/17 09:41:53;;;;;;;10.10;9.00;;;11.50;99.90;;;;;;5019638;28;20480;-67
2023/02/17 09:44:24;;;;;;;9.60;8.60;;;11.60;99.90;;;;;;5030088;28;20476;-69
2023/02/17 09:46:57;;;;;;;11.63;8.50;;;11.50;99.90;;;;;;5030254;28;20491;-68
2023/02/17 09:49:27;;;;;;;12.23;8.87;;;11.60;99.90;;;;;;5032776;28;20922;-67
2023/02/17 09:52:00;;;;;;;9.63;8.47;;;11.60;99.90;;;;;;5033873;28;20471;-69
2023/02/17 09:54:33;;;;;;;9.20;8.30;;;11.70;99.90;;;;;;5033834;28;20491;-66
2023/02/17 09:57:01;;;;;;;11.30;9.80;;;11.70;99.90;;;;;;5033506;28;20493;-66
2023/02/17 09:59:35;;;;;;;9.53;8.60;;;11.80;99.90;;;;;;5033645;28;20908;-68
2023/02/17 10:02:07;;;;;;;8.87;7.83;;;11.80;99.90;;;;;;5034055;28;20467;-67
2023/02/17 10:04:39;;;;;;;8.90;8.00;;;11.90;99.90;;;;;;5033682;28;20471;-65
2023/02/17 10:07:13;;;;;;;9.20;8.20;;;12.00;99.90;;;;;;5032580;28;20491;-66
2023/02/17 10:09:48;;;;;;;10.90;7.43;;;11.90;99.90;;;;;;5034081;28;20880;-66
2023/02/17 10:12:20;;;;;;;8.97;8.00;;;11.90;99.90;;;;;;5033991;28;20569;-66
2023/02/17 10:14:51;;;;;;;11.23;8.33;;;12.00;99.90;;;;;;5034021;28;20469;-63
2023/02/17 10:17:26;;;;;;;8.47;7.63;;;12.10;99.90;;;;;;5032714;28;20470;-67
2023/02/17 10:19:56;;;;;;;9.10;8.00;;;12.10;99.90;;;;;;5032426;28;20455;-65
2023/02/17 10:22:26;;;;;;;10.37;8.40;;;12.10;99.90;;;;;;5032921;28;20907;-65
2023/02/17 10:24:54;;;;;;;13.60;8.83;;;12.20;99.90;;;;;;5033387;28;20953;-66
2023/02/17 10:27:29;;;;;;;10.03;7.60;;;12.30;99.90;;;;;;5032849;28;20490;-63
2023/02/17 10:30:15;;;;;;;8.93;8.13;;;12.30;99.90;;;;;;5033427;28;20463;-67
2023/02/17 10:32:56;;;;;;;8.80;7.90;;;12.40;99.90;;;;;;5032443;28;20468;-64
2023/02/17 10:35:28;;;;;;;8.80;8.00;;;12.30;99.90;;;;;;5031718;28;20470;-63
2023/02/17 10:38:03;;;;;;;11.60;7.30;;;12.40;99.90;;;;;;5026652;28;20467;-63
2023/02/17 10:40:30;;;;;;;8.90;8.07;;;12.40;99.90;;;;;;5032062;28;20445;-64
2023/02/17 10:43:00;;;;;;;8.00;7.30;;;12.60;99.90;;;;;;5032852;28;20463;-64
2023/02/17 10:45:33;;;;;;;8.67;7.50;;;12.60;99.90;;;;;;5032517;28;20462;-64
2023/02/17 10:48:04;;;;;;;8.20;7.40;;;12.60;99.90;;;;;;5036307;28;20481;-64
2023/02/17 10:50:31;;;;;;;7.40;6.70;;;12.60;99.90;;;;;;5021981;28;20471;-63
2023/02/17 10:53:00;;;;;;;10.13;8.10;;;12.60;99.90;;;;;;5021112;28;20474;-63
2023/02/17 10:55:37;;;;;;;9.60;7.63;;;12.70;99.90;;;;;;5024432;28;21010;-64
2023/02/17 10:58:13;;;;;;;8.00;7.20;;;12.70;99.90;;;;;;5045465;28;20456;-64
2023/02/17 11:00:42;;;;;;;7.83;7.13;;;12.70;99.90;;;;;;5030193;28;20463;-65
2023/02/17 11:03:19;;;;;;;7.00;6.30;;;12.70;99.90;;;;;;5031571;28;20465;-63
2023/02/17 11:05:54;;;;;;;9.40;6.60;;;12.80;99.90;;;;;;5032976;28;20458;-63
2023/02/17 11:08:33;;;;;;;11.63;7.97;;;12.70;99.90;;;;;;5033749;28;20753;-63
2023/02/17 11:11:03;;;;;;;7.53;6.83;;;12.80;99.90;;;;;;5033846;28;20451;-66
2023/02/17 11:13:45;;;;;;;13.40;7.20;;;12.90;99.90;;;;;;5033191;28;20473;-65
2023/02/17 11:16:27;;;;;;;7.93;6.80;;;13.00;99.90;;;;;;5031389;28;20472;-65
2023/02/17 11:18:55;;;;;;;8.57;6.27;;;13.10;99.90;;;;;;5032098;28;20754;-65
2023/02/17 11:21:27;;;;;;;11.23;6.30;;;13.10;99.90;;;;;;5034179;28;20463;-65
2023/02/17 11:24:00;;;;;;;7.47;6.50;;;13.10;99.90;;;;;;5028237;28;20441;-64
2023/02/17 11:26:31;;;;;;;11.53;6.40;;;13.20;99.90;;;;;;5030593;28;20495;-63
2023/02/17 11:29:10;;;;;;;7.77;5.70;;;13.10;71.40;;;;;;5031132;28;20459;-63
2023/02/17 11:31:39;;;;;;;9.30;6.30;;;13.10;73.90;;;;;;5030178;28;20516;-65
2023/02/17 11:34:16;;;;;;;11.97;6.17;;;13.00;22.90;;;;;;5031670;28;20459;-65
2023/02/17 11:36:45;;;;;;;6.90;5.70;;;13.00;25.80;;;;;;5031649;28;20454;-65
2023/02/17 11:39:21;;;;;;;13.63;5.73;;;13.00;10.40;;;;;;5029407;28;20527;-65
2023/02/17 11:41:49;;;;;;;8.80;5.70;;;13.00;20.30;;;;;;5032670;28;20458;-62
2023/02/17 11:44:27;;;;;;;10.83;5.70;;;13.00;2.70;;;;;;5032424;28;20571;-65
2023/02/17 11:47:05;;;;;;;10.90;6.17;;;13.00;1.00;;;;;;5030930;28;20486;-65
2023/02/17 11:49:55;;;;;;;5.63;4.93;;;13.20;1.00;;;;;;5030830;28;20467;-65
2023/02/17 11:52:37;;;;;;;10.07;5.67;;;13.40;1.00;;;;;;5031212;28;20768;-62
2023/02/17 11:55:20;;;;;;;6.13;4.60;;;13.70;1.00;;;;;;5031778;28;20576;-62
2023/02/17 11:58:02;;;;;;;5.97;4.97;;;13.80;1.00;;;;;;5028457;28;20499;-63
2023/02/17 12:00:37;;;;;;;10.10;5.40;;;13.60;1.00;;;;;;5029680;28;20491;-62
2023/02/17 12:03:28;;;;;;;6.23;5.30;;;13.70;1.00;;;;;;5030755;28;20786;-63
2023/02/17 12:06:05;;;;;;;5.43;4.50;;;13.50;1.00;;;;;;5031174;28;20575;-61
2023/02/17 12:08:42;;;;;;;6.43;5.03;;;13.60;1.00;;;;;;5032012;28;20487;-60
2023/02/17 12:11:21;;;;;;;6.40;5.50;;;13.60;1.00;;;;;;5032141;28;20864;-62
2023/02/17 12:14:02;;;;;;;5.87;4.80;;;13.60;1.00;;;;;;5033050;28;20458;-61
2023/02/17 12:16:40;;;;;;;7.37;5.60;;;13.60;1.00;;;;;;5032536;28;20554;-62
2023/02/17 12:19:32;;;;;;;10.23;5.23;;;13.60;1.00;;;;;;5033712;28;20766;-62
2023/02/17 12:22:08;;;;;;;14.50;5.77;;;13.50;1.00;;;;;;5050387;27;20462;-58
2023/02/17 12:24:45;;;;;;;7.50;5.67;;;13.40;1.00;;;;;;5034817;28;20463;-62
2023/02/17 12:27:25;;;;;;;10.90;5.40;;;13.40;1.00;;;;;;5035124;28;20491;-61
2023/02/17 12:30:07;;;;;;;7.33;5.10;;;13.30;1.00;;;;;;5030429;28;20972;-62
2023/02/17 12:32:43;;;;;;;6.60;5.00;;;13.30;1.00;;;;;;5032042;28;20471;-62
2023/02/17 12:35:19;;;;;;;8.70;6.00;;;13.20;1.00;;;;;;5026974;28;20481;-61
2023/02/17 12:37:51;;;;;;;8.10;5.60;;;13.30;1.00;;;;;;5023514;28;20774;-62
2023/02/17 12:40:32;;;;;;;7.83;5.40;;;13.30;1.00;;;;;;5031443;28;20467;-62
2023/02/17 12:43:08;;;;;;;7.37;5.50;;;13.30;1.00;;;;;;5034751;28;20469;-62
2023/02/17 12:45:41;;;;;;;7.13;5.30;;;13.40;1.00;;;;;;5030364;28;20463;-61
2023/02/17 12:48:15;;;;;;;12.03;5.57;;;13.40;1.00;;;;;;5030749;28;20492;-61
2023/02/17 12:50:52;;;;;;;9.80;5.63;;;13.40;1.00;;;;;;5034270;28;20462;-62
2023/02/17 12:53:26;;;;;;;6.00;5.40;;;13.40;1.00;;;;;;5028241;28;20481;-65
2023/02/17 12:55:57;;;;;;;7.40;5.80;;;13.40;1.00;;;;;;5033971;28;20554;-65